createdAt,value
2023-04-12T00:00:56.616Z,934.97
2023-04-12T00:01:57.340Z,934.97
2023-04-12T00:02:56.695Z,934.94
2023-04-12T00:03:56.955Z,934.94
2023-04-12T00:04:56.645Z,934.93
2023-04-12T00:05:56.568Z,934.94
2023-04-12T00:06:56.580Z,934.93
2023-04-12T00:07:56.593Z,934.91
2023-04-12T00:08:56.547Z,934.90
2023-04-12T00:09:56.531Z,934.85
2023-04-12T00:10:56.526Z,934.90
2023-04-12T00:11:56.568Z,934.84
2023-04-12T00:12:57.169Z,934.81
2023-04-12T00:13:56.657Z,934.77
2023-04-12T00:14:56.546Z,934.84
2023-04-12T00:15:56.508Z,934.74
2023-04-12T00:16:57.241Z,934.74
2023-04-12T00:17:56.534Z,934.74
2023-04-12T00:18:56.438Z,934.77
2023-04-12T00:19:56.431Z,934.74
2023-04-12T00:20:56.419Z,934.74
2023-04-12T00:21:56.404Z,934.69
2023-04-12T00:22:56.386Z,934.74
2023-04-12T00:23:56.859Z,934.71
2023-04-12T00:24:56.401Z,934.68
2023-04-12T00:25:56.399Z,934.69
2023-04-12T00:26:56.360Z,934.69
2023-04-12T00:27:56.369Z,934.68
2023-04-12T00:28:56.350Z,934.72
2023-04-12T00:29:57.178Z,934.68
2023-04-12T00:30:56.388Z,934.68
2023-04-12T00:31:56.329Z,934.72
2023-04-12T00:32:56.321Z,934.68
2023-04-12T00:33:56.694Z,934.65
2023-04-12T00:34:56.265Z,934.72
2023-04-12T00:35:56.290Z,934.68
2023-04-12T00:36:56.306Z,934.66
2023-04-12T00:37:56.237Z,934.63
2023-04-12T00:38:56.230Z,934.64
2023-04-12T00:39:56.266Z,934.64
2023-04-12T00:40:56.211Z,934.62
2023-04-12T00:41:56.201Z,934.65
2023-04-12T00:42:56.200Z,934.68
2023-04-12T00:43:56.987Z,934.66
2023-04-12T00:44:56.195Z,934.64
2023-04-12T00:45:56.167Z,934.66
2023-04-12T00:46:56.264Z,934.60
2023-04-12T00:47:56.213Z,934.62
2023-04-12T00:48:56.184Z,934.58
2023-04-12T00:49:56.193Z,934.61
2023-04-12T00:50:56.134Z,934.58
2023-04-12T00:51:56.101Z,934.57
2023-04-12T00:52:56.093Z,934.58
2023-04-12T00:53:56.194Z,934.53
2023-04-12T00:54:56.053Z,934.57
2023-04-12T00:55:56.091Z,934.52
2023-04-12T00:56:56.071Z,934.53
2023-04-12T00:57:56.048Z,934.50
2023-04-12T00:58:56.086Z,934.50
2023-04-12T00:59:56.028Z,934.53
2023-04-12T01:00:56.028Z,934.52
2023-04-12T01:01:56.049Z,934.52
2023-04-12T01:02:56.149Z,934.49
2023-04-12T01:03:56.137Z,934.47
2023-04-12T01:04:55.948Z,934.51
2023-04-12T01:05:55.943Z,934.48
2023-04-12T01:06:55.968Z,934.53
2023-04-12T01:07:55.924Z,934.51
2023-04-12T01:08:55.972Z,934.54
2023-04-12T01:09:55.901Z,934.52
2023-04-12T01:10:55.889Z,934.48
2023-04-12T01:11:55.926Z,934.47
2023-04-12T01:12:55.867Z,934.48
2023-04-12T01:13:56.078Z,934.48
2023-04-12T01:14:55.845Z,934.47
2023-04-12T01:15:55.865Z,934.49
2023-04-12T01:16:55.907Z,934.53
2023-04-12T01:17:55.905Z,934.55
2023-04-12T01:18:55.841Z,934.56
2023-04-12T01:19:55.803Z,934.56
2023-04-12T01:20:55.782Z,934.58
2023-04-12T01:21:55.769Z,934.57
2023-04-12T01:22:55.789Z,934.55
2023-04-12T01:23:56.060Z,934.60
2023-04-12T01:24:55.778Z,934.59
2023-04-12T01:25:55.777Z,934.61
2023-04-12T01:26:55.715Z,934.59
2023-04-12T01:27:55.768Z,934.65
2023-04-12T01:28:55.715Z,934.66
2023-04-12T01:29:55.683Z,934.63
2023-04-12T01:30:55.674Z,934.65
2023-04-12T01:31:55.716Z,934.66
2023-04-12T01:32:55.723Z,934.70
2023-04-12T01:33:56.025Z,934.67
2023-04-12T01:34:55.650Z,934.63
2023-04-12T01:35:55.669Z,934.66
2023-04-12T01:36:55.612Z,934.63
2023-04-12T01:37:55.679Z,934.59
2023-04-12T01:38:55.593Z,934.53
2023-04-12T01:39:56.187Z,934.50
2023-04-12T01:40:55.618Z,934.47
2023-04-12T01:41:55.572Z,934.55
2023-04-12T01:42:55.553Z,934.52
2023-04-12T01:43:55.918Z,934.51
2023-04-12T01:44:55.524Z,934.57
2023-04-12T01:45:55.596Z,934.57
2023-04-12T01:46:55.503Z,934.53
2023-04-12T01:47:55.549Z,934.51
2023-04-12T01:48:55.718Z,934.52
2023-04-12T01:49:55.481Z,934.45
2023-04-12T01:50:55.482Z,934.46
2023-04-12T01:51:55.520Z,934.43
2023-04-12T01:52:55.445Z,934.36
2023-04-12T01:53:55.820Z,934.33
2023-04-12T01:54:55.439Z,934.32
2023-04-12T01:55:55.415Z,934.26
2023-04-12T01:56:55.404Z,934.27
2023-04-12T01:57:55.392Z,934.31
2023-04-12T01:58:55.402Z,934.23
2023-04-12T01:59:55.389Z,934.23
2023-04-12T02:00:55.371Z,934.21
2023-04-12T02:01:55.422Z,934.24
2023-04-12T02:02:55.463Z,934.21
2023-04-12T02:03:55.546Z,934.18
2023-04-12T02:04:55.320Z,934.19
2023-04-12T02:05:55.310Z,934.19
2023-04-12T02:06:55.312Z,934.16
2023-04-12T02:07:55.302Z,934.16
2023-04-12T02:08:55.308Z,934.12
2023-04-12T02:09:55.271Z,934.08
2023-04-12T02:10:55.271Z,934.05
2023-04-12T02:11:55.242Z,934.08
2023-04-12T02:12:55.227Z,934.01
2023-04-12T02:13:55.613Z,934.01
2023-04-12T02:14:55.228Z,933.97
2023-04-12T02:15:55.212Z,933.92
2023-04-12T02:17:00.252Z,933.93
2023-04-12T02:17:55.223Z,933.88
2023-04-12T02:18:55.166Z,933.91
2023-04-12T02:19:55.236Z,933.89
2023-04-12T02:20:55.166Z,933.90
2023-04-12T02:21:55.143Z,933.86
2023-04-12T02:22:55.154Z,933.89
2023-04-12T02:23:55.419Z,933.86
2023-04-12T02:24:55.105Z,933.83
2023-04-12T02:25:55.094Z,933.77
2023-04-12T02:26:55.099Z,933.75
2023-04-12T02:27:55.102Z,933.73
2023-04-12T02:28:55.076Z,933.67
2023-04-12T02:29:55.057Z,933.72
2023-04-12T02:30:55.101Z,933.71
2023-04-12T02:31:55.060Z,933.73
2023-04-12T02:32:55.062Z,933.73
2023-04-12T02:33:55.329Z,933.68
2023-04-12T02:34:55.014Z,933.72
2023-04-12T02:35:55.045Z,933.69
2023-04-12T02:36:55.017Z,933.66
2023-04-12T02:37:54.985Z,933.62
2023-04-12T02:38:54.963Z,933.61
2023-04-12T02:39:54.985Z,933.63
2023-04-12T02:40:54.930Z,933.62
2023-04-12T02:41:54.984Z,933.59
2023-04-12T02:42:54.944Z,933.57
2023-04-12T02:43:55.142Z,933.52
2023-04-12T02:44:54.906Z,933.52
2023-04-12T02:45:54.935Z,933.52
2023-04-12T02:46:54.869Z,933.49
2023-04-12T02:47:54.985Z,933.50
2023-04-12T02:48:54.885Z,933.47
2023-04-12T02:49:54.868Z,933.47
2023-04-12T02:50:54.866Z,933.47
2023-04-12T02:51:54.838Z,933.41
2023-04-12T02:52:54.823Z,933.42
2023-04-12T02:53:54.910Z,933.36
2023-04-12T02:54:54.812Z,933.40
2023-04-12T02:55:54.792Z,933.36
2023-04-12T02:56:54.772Z,933.36
2023-04-12T02:57:54.785Z,933.32
2023-04-12T02:58:54.740Z,933.35
2023-04-12T02:59:54.765Z,933.25
2023-04-12T03:00:54.720Z,933.33
2023-04-12T03:01:54.874Z,933.25
2023-04-12T03:02:54.819Z,933.24
2023-04-12T03:03:55.003Z,933.22
2023-04-12T03:04:54.685Z,933.25
2023-04-12T03:05:55.228Z,933.21
2023-04-12T03:06:54.666Z,933.19
2023-04-12T03:07:54.674Z,933.21
2023-04-12T03:08:54.642Z,933.24
2023-04-12T03:09:54.641Z,933.20
2023-04-12T03:10:54.674Z,933.17
2023-04-12T03:11:54.628Z,933.12
2023-04-12T03:12:54.627Z,933.12
2023-04-12T03:13:54.851Z,933.09
2023-04-12T03:14:54.588Z,933.09
2023-04-12T03:15:54.593Z,933.10
2023-04-12T03:16:54.753Z,933.11
2023-04-12T03:17:54.608Z,933.03
2023-04-12T03:18:54.551Z,933.02
2023-04-12T03:19:54.547Z,933.01
2023-04-12T03:21:02.024Z,933.01
2023-04-12T03:21:54.557Z,932.96
2023-04-12T03:22:54.561Z,932.96
2023-04-12T03:23:54.912Z,932.95
2023-04-12T03:24:54.562Z,932.92
2023-04-12T03:25:54.522Z,932.93
2023-04-12T03:26:54.451Z,932.91
2023-04-12T03:27:54.472Z,932.92
2023-04-12T03:28:54.434Z,932.92
2023-04-12T03:29:54.441Z,932.84
2023-04-12T03:30:54.456Z,932.86
2023-04-12T03:31:54.441Z,932.85
2023-04-12T03:32:54.483Z,932.85
2023-04-12T03:33:54.371Z,932.84
2023-04-12T03:34:54.361Z,932.87
2023-04-12T03:35:54.373Z,932.81
2023-04-12T03:36:54.419Z,932.84
2023-04-12T03:37:54.360Z,932.82
2023-04-12T03:38:54.381Z,932.84
2023-04-12T03:39:54.340Z,932.84
2023-04-12T03:40:54.368Z,932.83
2023-04-12T03:41:54.312Z,932.83
2023-04-12T03:42:54.315Z,932.83
2023-04-12T03:43:54.340Z,932.74
2023-04-12T03:44:54.319Z,932.77
2023-04-12T03:45:54.297Z,932.79
2023-04-12T03:46:54.425Z,932.72
2023-04-12T03:47:54.264Z,932.80
2023-04-12T03:48:54.273Z,932.75
2023-04-12T03:50:09.808Z,932.74
2023-04-12T03:50:55.201Z,932.67
2023-04-12T03:51:54.182Z,932.68
2023-04-12T03:52:54.321Z,932.70
2023-04-12T03:53:54.401Z,932.65
2023-04-12T03:54:54.174Z,932.66
2023-04-12T03:55:54.161Z,932.59
2023-04-12T03:56:54.149Z,932.60
2023-04-12T03:57:54.129Z,932.58
2023-04-12T03:58:54.149Z,932.55
2023-04-12T03:59:54.144Z,932.47
2023-04-12T04:00:54.101Z,932.45
2023-04-12T04:01:54.098Z,932.50
2023-04-12T04:02:54.906Z,932.47
2023-04-12T04:03:54.212Z,932.50
2023-04-12T04:04:54.083Z,932.48
2023-04-12T04:05:54.070Z,932.42
2023-04-12T04:06:54.023Z,932.43
2023-04-12T04:07:54.058Z,932.42
2023-04-12T04:08:54.005Z,932.42
2023-04-12T04:09:54.033Z,932.44
2023-04-12T04:10:54.025Z,932.37
2023-04-12T04:11:54.008Z,932.39
2023-04-12T04:12:53.984Z,932.37
2023-04-12T04:13:53.959Z,932.40
2023-04-12T04:14:54.010Z,932.38
2023-04-12T04:15:53.967Z,932.35
2023-04-12T04:16:53.925Z,932.35
2023-04-12T04:17:54.008Z,932.34
2023-04-12T04:18:53.975Z,932.34
2023-04-12T04:19:53.904Z,932.34
2023-04-12T04:20:53.885Z,932.33
2023-04-12T04:21:53.869Z,932.30
2023-04-12T04:22:53.863Z,932.32
2023-04-12T04:23:53.863Z,932.28
2023-04-12T04:24:53.835Z,932.29
2023-04-12T04:25:53.834Z,932.26
2023-04-12T04:26:53.840Z,932.24
2023-04-12T04:27:54.029Z,932.22
2023-04-12T04:28:53.805Z,932.20
2023-04-12T04:29:54.723Z,932.12
2023-04-12T04:30:53.805Z,932.12
2023-04-12T04:31:53.887Z,932.13
2023-04-12T04:32:53.792Z,932.09
2023-04-12T04:33:53.798Z,932.05
2023-04-12T04:34:53.765Z,932.08
2023-04-12T04:35:53.766Z,932.08
2023-04-12T04:36:53.764Z,932.07
2023-04-12T04:37:53.734Z,932.06
2023-04-12T04:38:53.702Z,932.04
2023-04-12T04:39:53.730Z,932.05
2023-04-12T04:40:53.678Z,932.10
2023-04-12T04:41:53.695Z,932.08
2023-04-12T04:42:53.709Z,932.07
2023-04-12T04:43:53.790Z,932.09
2023-04-12T04:44:53.673Z,932.09
2023-04-12T04:45:53.664Z,932.07
2023-04-12T04:46:53.638Z,932.06
2023-04-12T04:47:53.657Z,932.08
2023-04-12T04:48:53.595Z,932.10
2023-04-12T04:49:53.772Z,932.03
2023-04-12T04:50:53.575Z,932.00
2023-04-12T04:51:53.562Z,932.08
2023-04-12T04:52:53.549Z,932.03
2023-04-12T04:53:53.598Z,932.03
2023-04-12T04:54:53.539Z,931.96
2023-04-12T04:55:53.535Z,931.96
2023-04-12T04:56:53.508Z,931.94
2023-04-12T04:57:53.494Z,931.96
2023-04-12T04:58:55.425Z,931.95
2023-04-12T04:59:53.587Z,931.94
2023-04-12T05:00:53.566Z,931.89
2023-04-12T05:01:53.517Z,931.89
2023-04-12T05:02:53.533Z,931.83
2023-04-12T05:03:53.576Z,931.81
2023-04-12T05:04:53.433Z,931.82
2023-04-12T05:05:53.429Z,931.81
2023-04-12T05:06:53.400Z,931.83
2023-04-12T05:07:53.377Z,931.79
2023-04-12T05:08:53.399Z,931.81
2023-04-12T05:09:53.379Z,931.82
2023-04-12T05:10:53.421Z,931.83
2023-04-12T05:11:53.399Z,931.82
2023-04-12T05:12:53.420Z,931.86
2023-04-12T05:13:53.371Z,931.81
2023-04-12T05:14:58.204Z,931.83
2023-04-12T05:15:54.319Z,931.84
2023-04-12T05:16:53.353Z,931.82
2023-04-12T05:17:53.406Z,931.80
2023-04-12T05:18:53.339Z,931.77
2023-04-12T05:19:53.260Z,931.82
2023-04-12T05:20:53.265Z,931.73
2023-04-12T05:21:53.240Z,931.80
2023-04-12T05:22:53.268Z,931.74
2023-04-12T05:23:53.217Z,931.72
2023-04-12T05:24:53.273Z,931.75
2023-04-12T05:25:53.242Z,931.72
2023-04-12T05:26:53.184Z,931.73
2023-04-12T05:27:53.193Z,931.67
2023-04-12T05:28:53.189Z,931.65
2023-04-12T05:29:53.149Z,931.62
2023-04-12T05:30:53.189Z,931.57
2023-04-12T05:31:53.155Z,931.57
2023-04-12T05:32:53.145Z,931.60
2023-04-12T05:33:53.124Z,931.58
2023-04-12T05:34:53.159Z,931.58
2023-04-12T05:35:53.289Z,931.54
2023-04-12T05:36:53.090Z,931.50
2023-04-12T05:37:53.111Z,931.52
2023-04-12T05:38:53.061Z,931.51
2023-04-12T05:39:53.727Z,931.52
2023-04-12T05:40:53.073Z,931.52
2023-04-12T05:41:53.026Z,931.48
2023-04-12T05:42:53.017Z,931.47
2023-04-12T05:43:53.001Z,931.43
2023-04-12T05:44:53.007Z,931.44
2023-04-12T05:45:53.138Z,931.42
2023-04-12T05:46:53.054Z,931.45
2023-04-12T05:47:53.039Z,931.44
2023-04-12T05:48:52.989Z,931.42
2023-04-12T05:49:53.005Z,931.38
2023-04-12T05:50:52.940Z,931.40
2023-04-12T05:51:52.947Z,931.37
2023-04-12T05:52:52.948Z,931.37
2023-04-12T05:53:52.924Z,931.32
2023-04-12T05:54:52.893Z,931.32
2023-04-12T05:55:52.921Z,931.35
2023-04-12T05:56:52.873Z,931.33
2023-04-12T05:57:52.857Z,931.33
2023-04-12T05:58:52.846Z,931.33
2023-04-12T05:59:52.835Z,931.29
2023-04-12T06:00:52.846Z,931.23
2023-04-12T06:01:52.864Z,931.24
2023-04-12T06:02:52.885Z,931.23
2023-04-12T06:03:52.950Z,931.24
2023-04-12T06:04:53.025Z,931.18
2023-04-12T06:05:52.782Z,931.15
2023-04-12T06:06:52.789Z,931.15
2023-04-12T06:07:52.807Z,931.14
2023-04-12T06:08:52.761Z,931.19
2023-04-12T06:09:52.741Z,931.18
2023-04-12T06:10:53.246Z,931.20
2023-04-12T06:11:52.730Z,931.12
2023-04-12T06:12:52.725Z,931.16
2023-04-12T06:13:52.711Z,931.13
2023-04-12T06:14:52.682Z,931.16
2023-04-12T06:15:52.750Z,931.14
2023-04-12T06:16:52.670Z,931.16
2023-04-12T06:17:52.787Z,931.16
2023-04-12T06:18:52.642Z,931.08
2023-04-12T06:19:52.705Z,931.13
2023-04-12T06:20:52.646Z,931.09
2023-04-12T06:21:52.602Z,931.10
2023-04-12T06:22:52.615Z,931.07
2023-04-12T06:23:52.665Z,931.09
2023-04-12T06:24:52.612Z,931.00
2023-04-12T06:25:52.554Z,930.96
2023-04-12T06:26:52.580Z,931.01
2023-04-12T06:27:52.549Z,931.00
2023-04-12T06:28:52.550Z,931.03
2023-04-12T06:29:52.527Z,931.00
2023-04-12T06:30:52.537Z,930.99
2023-04-12T06:31:52.906Z,930.99
2023-04-12T06:32:52.525Z,931.04
2023-04-12T06:33:52.523Z,931.01
2023-04-12T06:34:52.519Z,930.98
2023-04-12T06:35:52.606Z,931.00
2023-04-12T06:36:52.484Z,931.01
2023-04-12T06:37:52.506Z,930.98
2023-04-12T06:38:52.424Z,930.91
2023-04-12T06:39:52.407Z,930.91
2023-04-12T06:40:52.396Z,930.89
2023-04-12T06:41:52.390Z,930.89
2023-04-12T06:42:52.405Z,930.85
2023-04-12T06:43:52.400Z,930.83
2023-04-12T06:44:52.424Z,930.81
2023-04-12T06:45:52.403Z,930.78
2023-04-12T06:46:52.596Z,930.82
2023-04-12T06:47:52.380Z,930.80
2023-04-12T06:48:52.401Z,930.75
2023-04-12T06:49:53.934Z,930.75
2023-04-12T06:50:52.297Z,930.84
2023-04-12T06:51:52.301Z,930.72
2023-04-12T06:52:52.294Z,930.71
2023-04-12T06:53:52.260Z,930.70
2023-04-12T06:54:52.316Z,930.65
2023-04-12T06:55:52.242Z,930.67
2023-04-12T06:56:52.228Z,930.64
2023-04-12T06:57:52.261Z,930.69
2023-04-12T06:58:52.233Z,930.65
2023-04-12T06:59:52.223Z,930.68
2023-04-12T07:00:52.242Z,930.66
2023-04-12T07:01:52.202Z,930.63
2023-04-12T07:02:52.660Z,930.58
2023-04-12T07:03:52.288Z,930.61
2023-04-12T07:04:52.146Z,930.56
2023-04-12T07:05:52.138Z,930.58
2023-04-12T07:06:52.159Z,930.58
2023-04-12T07:07:52.141Z,930.53
2023-04-12T07:08:52.112Z,930.52
2023-04-12T07:09:52.115Z,930.47
2023-04-12T07:10:52.090Z,930.48
2023-04-12T07:11:52.080Z,930.47
2023-04-12T07:12:52.092Z,930.43
2023-04-12T07:13:52.061Z,930.37
2023-04-12T07:14:52.040Z,930.34
2023-04-12T07:15:52.027Z,930.37
2023-04-12T07:16:52.064Z,930.28
2023-04-12T07:17:52.090Z,930.30
2023-04-12T07:18:51.996Z,930.31
2023-04-12T07:19:52.016Z,930.27
2023-04-12T07:20:51.975Z,930.24
2023-04-12T07:21:51.979Z,930.24
2023-04-12T07:22:51.954Z,930.22
2023-04-12T07:23:51.969Z,930.17
2023-04-12T07:24:51.968Z,930.14
2023-04-12T07:25:51.917Z,930.13
2023-04-12T07:26:51.904Z,930.12
2023-04-12T07:27:52.028Z,930.12
2023-04-12T07:28:51.936Z,930.08
2023-04-12T07:29:51.876Z,930.06
2023-04-12T07:30:51.884Z,930.02
2023-04-12T07:31:51.857Z,930.01
2023-04-12T07:32:51.911Z,930.01
2023-04-12T07:33:52.073Z,929.99
2023-04-12T07:34:51.834Z,929.95
2023-04-12T07:35:51.869Z,929.92
2023-04-12T07:36:51.838Z,929.88
2023-04-12T07:37:51.809Z,929.87
2023-04-12T07:38:51.792Z,929.88
2023-04-12T07:39:51.981Z,929.82
2023-04-12T07:40:51.773Z,929.86
2023-04-12T07:41:51.752Z,929.87
2023-04-12T07:42:51.843Z,929.86
2023-04-12T07:43:51.776Z,929.83
2023-04-12T07:44:51.742Z,929.82
2023-04-12T07:45:51.766Z,929.80
2023-04-12T07:46:51.829Z,929.74
2023-04-12T07:47:51.722Z,929.69
2023-04-12T07:48:51.692Z,929.69
2023-04-12T07:49:51.694Z,929.66
2023-04-12T07:50:51.689Z,929.66
2023-04-12T07:51:51.688Z,929.61
2023-04-12T07:52:51.656Z,929.59
2023-04-12T07:53:51.638Z,929.46
2023-04-12T07:54:51.618Z,929.35
2023-04-12T07:55:51.667Z,929.39
2023-04-12T07:56:51.605Z,929.41
2023-04-12T07:57:51.653Z,929.43
2023-04-12T07:58:51.586Z,929.41
2023-04-12T07:59:51.576Z,929.35
2023-04-12T08:00:51.608Z,929.30
2023-04-12T08:01:51.573Z,929.34
2023-04-12T08:02:51.795Z,929.35
2023-04-12T08:03:51.663Z,929.38
2023-04-12T08:04:51.585Z,929.33
2023-04-12T08:05:51.709Z,929.30
2023-04-12T08:06:51.490Z,929.34
2023-04-12T08:07:51.496Z,929.29
2023-04-12T08:08:51.507Z,929.25
2023-04-12T08:09:51.490Z,929.27
2023-04-12T08:10:51.449Z,929.26
2023-04-12T08:11:51.475Z,929.22
2023-04-12T08:12:51.424Z,929.21
2023-04-12T08:13:51.424Z,929.17
2023-04-12T08:14:51.468Z,929.16
2023-04-12T08:15:51.474Z,929.15
2023-04-12T08:16:51.470Z,929.11
2023-04-12T08:17:51.437Z,929.12
2023-04-12T08:18:51.357Z,929.06
2023-04-12T08:19:51.356Z,929.02
2023-04-12T08:20:51.500Z,929.06
2023-04-12T08:21:59.591Z,928.97
2023-04-12T08:22:51.311Z,928.89
2023-04-12T08:23:51.323Z,928.92
2023-04-12T08:24:51.292Z,928.93
2023-04-12T08:25:51.323Z,928.95
2023-04-12T08:26:51.286Z,928.97
2023-04-12T08:27:51.481Z,928.92
2023-04-12T08:28:51.329Z,928.91
2023-04-12T08:29:51.242Z,928.87
2023-04-12T08:30:51.338Z,928.87
2023-04-12T08:31:51.257Z,928.86
2023-04-12T08:32:51.482Z,928.87
2023-04-12T08:33:51.227Z,928.87
2023-04-12T08:34:51.186Z,928.81
2023-04-12T08:35:51.217Z,928.81
2023-04-12T08:36:51.236Z,928.81
2023-04-12T08:37:51.240Z,928.77
2023-04-12T08:38:51.150Z,928.79
2023-04-12T08:39:51.176Z,928.73
2023-04-12T08:40:51.105Z,928.77
2023-04-12T08:41:51.105Z,928.67
2023-04-12T08:42:51.154Z,928.67
2023-04-12T08:43:51.267Z,928.59
2023-04-12T08:44:51.101Z,928.57
2023-04-12T08:45:51.109Z,928.60
2023-04-12T08:46:53.410Z,928.64
2023-04-12T08:47:51.156Z,928.65
2023-04-12T08:48:51.152Z,928.55
2023-04-12T08:49:51.054Z,928.59
2023-04-12T08:50:51.028Z,928.64
2023-04-12T08:51:51.033Z,928.57
2023-04-12T08:52:50.984Z,928.61
2023-04-12T08:53:51.012Z,928.54
2023-04-12T08:54:51.061Z,928.50
2023-04-12T08:55:51.024Z,928.49
2023-04-12T08:56:51.008Z,928.52
2023-04-12T08:57:51.043Z,928.49
2023-04-12T08:58:52.053Z,928.49
2023-04-12T08:59:51.092Z,928.45
2023-04-12T09:00:50.922Z,928.40
2023-04-12T09:01:50.966Z,928.40
2023-04-12T09:02:51.175Z,928.40
2023-04-12T09:03:51.243Z,928.35
2023-04-12T09:04:51.128Z,928.35
2023-04-12T09:05:51.799Z,928.31
2023-04-12T09:06:50.877Z,928.30
2023-04-12T09:07:50.843Z,928.25
2023-04-12T09:08:50.820Z,928.25
2023-04-12T09:09:50.852Z,928.16
2023-04-12T09:10:50.800Z,928.17
2023-04-12T09:11:50.804Z,928.16
2023-04-12T09:12:52.418Z,928.12
2023-04-12T09:13:50.804Z,928.07
2023-04-12T09:14:50.965Z,928.09
2023-04-12T09:15:50.840Z,928.16
2023-04-12T09:16:50.805Z,928.14
2023-04-12T09:17:50.897Z,928.12
2023-04-12T09:21:07.604Z,928.04
2023-04-12T09:22:06.956Z,927.96
2023-04-12T09:23:06.944Z,927.93
2023-04-12T09:24:06.963Z,927.94
2023-04-12T09:25:06.919Z,927.98
2023-04-12T09:26:06.940Z,927.91
2023-04-12T09:27:06.953Z,927.86
2023-04-12T09:28:06.933Z,927.82
2023-04-12T09:29:06.976Z,927.84
2023-04-12T09:30:06.918Z,927.81
2023-04-12T09:31:07.001Z,927.74
2023-04-12T09:32:06.889Z,927.67
2023-04-12T09:33:06.943Z,927.65
2023-04-12T09:34:06.828Z,927.66
2023-04-12T09:35:06.828Z,927.67
2023-04-12T09:36:06.853Z,927.63
2023-04-12T09:37:06.800Z,927.66
2023-04-12T09:38:06.807Z,927.56
2023-04-12T09:39:06.819Z,927.53
2023-04-12T09:40:06.814Z,927.57
2023-04-12T09:41:07.623Z,927.51
2023-04-12T09:42:12.357Z,927.60
2023-04-12T09:43:07.774Z,927.55
2023-04-12T09:44:06.764Z,927.46
2023-04-12T09:45:06.725Z,927.51
2023-04-12T09:46:06.817Z,927.45
2023-04-12T09:47:06.709Z,927.40
2023-04-12T09:48:06.764Z,927.46
2023-04-12T09:49:06.709Z,927.44
2023-04-12T09:50:06.670Z,927.36
2023-04-12T09:51:06.693Z,927.28
2023-04-12T09:52:06.633Z,927.29
2023-04-12T09:53:06.675Z,927.32
2023-04-12T09:54:06.616Z,927.41
2023-04-12T09:55:06.630Z,927.33
2023-04-12T09:56:06.595Z,927.40
2023-04-12T09:57:06.626Z,927.29
2023-04-12T09:58:06.563Z,927.38
2023-04-12T09:59:06.579Z,927.38
2023-04-12T10:00:06.598Z,927.38
2023-04-12T10:01:06.589Z,927.33
2023-04-12T10:02:06.621Z,927.34
2023-04-12T10:03:06.692Z,927.36
2023-04-12T10:04:06.794Z,927.41
2023-04-12T10:05:06.751Z,927.38
2023-04-12T10:06:06.481Z,927.37
2023-04-12T10:07:06.517Z,927.31
2023-04-12T10:08:06.487Z,927.31
2023-04-12T10:09:06.521Z,927.28
2023-04-12T10:10:06.461Z,927.31
2023-04-12T10:11:06.461Z,927.25
2023-04-12T10:12:06.483Z,927.22
2023-04-12T10:13:06.493Z,927.23
2023-04-12T10:14:06.407Z,927.21
2023-04-12T10:15:06.396Z,927.25
2023-04-12T10:16:06.410Z,927.22
2023-04-12T10:17:06.369Z,927.26
2023-04-12T10:18:06.372Z,927.21
2023-04-12T10:19:06.405Z,927.25
2023-04-12T10:20:06.332Z,927.26
2023-04-12T10:21:06.322Z,927.28
2023-04-12T10:22:06.361Z,927.27
2023-04-12T10:23:06.306Z,927.23
2023-04-12T10:24:06.287Z,927.22
2023-04-12T10:25:06.298Z,927.25
2023-04-12T10:26:06.272Z,927.19
2023-04-12T10:27:06.287Z,927.19
2023-04-12T10:28:06.301Z,927.19
2023-04-12T10:29:06.269Z,927.19
2023-04-12T10:30:06.236Z,927.12
2023-04-12T10:31:06.291Z,927.12
2023-04-12T10:32:06.282Z,927.12
2023-04-12T10:33:06.344Z,927.07
2023-04-12T10:34:06.206Z,927.13
2023-04-12T10:35:06.330Z,927.09
2023-04-12T10:36:06.258Z,927.11
2023-04-12T10:37:06.259Z,927.07
2023-04-12T10:38:06.151Z,927.08
2023-04-12T10:39:06.166Z,927.04
2023-04-12T10:40:06.174Z,927.04
2023-04-12T10:41:06.134Z,927.07
2023-04-12T10:42:06.188Z,927.00
2023-04-12T10:43:06.118Z,926.94
2023-04-12T10:44:06.124Z,926.98
2023-04-12T10:45:06.107Z,926.96
2023-04-12T10:46:06.087Z,926.98
2023-04-12T10:47:06.116Z,926.97
2023-04-12T10:48:06.126Z,926.89
2023-04-12T10:49:06.040Z,926.89
2023-04-12T10:50:06.112Z,926.78
2023-04-12T10:51:06.053Z,926.84
2023-04-12T10:52:06.061Z,926.81
2023-04-12T10:53:06.021Z,926.96
2023-04-12T10:54:05.993Z,926.89
2023-04-12T10:55:06.007Z,926.75
2023-04-12T10:56:05.951Z,926.79
2023-04-12T10:57:05.960Z,926.85
2023-04-12T10:58:05.966Z,926.77
2023-04-12T10:59:05.986Z,926.78
2023-04-12T11:00:05.955Z,926.74
2023-04-12T11:01:06.003Z,926.66
2023-04-12T11:02:06.134Z,926.67
2023-04-12T11:03:06.075Z,926.72
2023-04-12T11:04:06.145Z,926.70
2023-04-12T11:05:05.924Z,926.66
2023-04-12T11:06:20.121Z,926.72
2023-04-12T11:07:06.871Z,926.77
2023-04-12T11:08:05.829Z,926.71
2023-04-12T11:09:05.814Z,926.66
2023-04-12T11:10:05.819Z,926.67
2023-04-12T11:11:05.811Z,926.77
2023-04-12T11:12:06.922Z,926.78
2023-04-12T11:13:05.879Z,926.77
2023-04-12T11:14:05.766Z,926.80
2023-04-12T11:15:05.768Z,926.79
2023-04-12T11:16:05.924Z,926.70
2023-04-12T11:17:05.913Z,926.78
2023-04-12T11:18:05.762Z,926.68
2023-04-12T11:19:05.751Z,926.61
2023-04-12T11:20:05.734Z,926.55
2023-04-12T11:21:05.753Z,926.49
2023-04-12T11:22:05.725Z,926.48
2023-04-12T11:23:05.742Z,926.68
2023-04-12T11:24:05.688Z,926.59
2023-04-12T11:25:05.722Z,926.59
2023-04-12T11:26:05.651Z,926.62
2023-04-12T11:27:05.621Z,926.68
2023-04-12T11:28:17.243Z,926.63
2023-04-12T11:29:06.647Z,926.63
2023-04-12T11:30:05.625Z,926.76
2023-04-12T11:31:05.660Z,926.72
2023-04-12T11:32:05.702Z,926.70
2023-04-12T11:33:05.676Z,926.75
2023-04-12T11:34:05.546Z,926.64
2023-04-12T11:35:05.547Z,926.66
2023-04-12T11:36:05.544Z,926.71
2023-04-12T11:37:05.525Z,926.67
2023-04-12T11:38:05.539Z,926.73
2023-04-12T11:39:05.526Z,926.74
2023-04-12T11:40:05.572Z,926.65
2023-04-12T11:41:05.515Z,926.76
2023-04-12T11:42:05.475Z,926.80
2023-04-12T11:43:05.484Z,926.83
2023-04-12T11:44:05.463Z,926.74
2023-04-12T11:45:14.752Z,926.83
2023-04-12T11:46:06.538Z,926.82
2023-04-12T11:47:05.422Z,926.77
2023-04-12T11:48:05.426Z,926.87
2023-04-12T11:49:05.453Z,926.88
2023-04-12T11:50:05.483Z,926.88
2023-04-12T11:51:11.418Z,926.92
2023-04-12T11:52:06.412Z,926.91
2023-04-12T11:53:05.354Z,926.93
2023-04-12T11:54:05.356Z,926.92
2023-04-12T11:55:05.481Z,926.87
2023-04-12T11:56:05.344Z,926.94
2023-04-12T11:57:05.948Z,926.93
2023-04-12T11:58:05.299Z,926.98
2023-04-12T11:59:05.282Z,926.94
2023-04-12T12:00:05.350Z,926.91
2023-04-12T12:01:05.262Z,926.92
2023-04-12T12:02:20.975Z,926.92
2023-04-12T12:03:08.374Z,926.90
2023-04-12T12:04:06.148Z,926.97
2023-04-12T12:05:05.387Z,927.00
2023-04-12T12:06:05.441Z,926.74
2023-04-12T12:07:05.288Z,926.90
2023-04-12T12:08:05.236Z,926.89
2023-04-12T12:09:05.228Z,926.87
2023-04-12T12:10:05.174Z,926.86
2023-04-12T12:11:08.377Z,926.89
2023-04-12T12:12:05.141Z,926.89
2023-04-12T12:13:05.150Z,926.81
2023-04-12T12:14:05.187Z,926.81
2023-04-12T12:15:05.125Z,926.76
2023-04-12T12:16:05.176Z,926.79
2023-04-12T12:17:05.294Z,926.73
2023-04-12T12:18:05.143Z,926.76
2023-04-12T12:19:05.160Z,926.61
2023-04-12T12:20:05.130Z,926.66
2023-04-12T12:21:05.046Z,926.70
2023-04-12T12:22:05.038Z,926.67
2023-04-12T12:23:05.033Z,926.63
2023-04-12T12:24:05.064Z,926.45
2023-04-12T12:25:05.015Z,926.64
2023-04-12T12:27:05.016Z,926.60
2023-04-12T12:28:05.052Z,926.55
2023-04-12T12:29:04.984Z,926.58
2023-04-12T12:30:04.970Z,926.57
2023-04-12T12:31:04.987Z,926.49
2023-04-12T12:32:04.956Z,926.44